Time;durP1;ratioP1;P1;durP2;ratioP2;P2;SDS_P1;SDS_P2;PMS_P1;PMS_P2;Temp;Humidity;BMP_temperature;BMP_pressure;BME280_temperature;BME280_humidity;BME280_pressure;Samples;Min_cycle;Max_cycle;Signal;HPM_P1;HPM_P2
2023/03/29 00:03:44;;;;;;;;;;;4.20;99.90;;;;;;8258122;28;19917;-75
2023/03/29 00:07:44;;;;;;;;;;;4.30;99.90;;;;;;8258792;28;19920;-76
2023/03/29 00:11:45;;;;;;;;;;;4.30;99.90;;;;;;8258984;28;19949;-76
2023/03/29 00:15:45;;;;;;;;;;;4.30;99.90;;;;;;8257281;28;19906;-76
2023/03/29 00:19:46;;;;;;;;;;;4.20;99.90;;;;;;8257554;28;19909;-76
2023/03/29 00:23:47;;;;;;;;;;;4.30;99.90;;;;;;8257257;28;19960;-76
2023/03/29 00:27:47;;;;;;;;;;;4.20;99.90;;;;;;8258084;28;20305;-76
2023/03/29 00:31:53;;;;;;;;;;;4.10;99.90;;;;;;8257417;28;20350;-75
2023/03/29 00:35:53;;;;;;;;;;;3.80;99.90;;;;;;8261401;28;19909;-76
2023/03/29 00:39:54;;;;;;;;;;;3.80;99.90;;;;;;8263667;28;19909;-76
2023/03/29 00:43:55;;;;;;;;;;;3.70;99.90;;;;;;8264496;28;19910;-76
2023/03/29 00:47:56;;;;;;;;;;;4.00;99.90;;;;;;8262706;28;19909;-75
2023/03/29 00:51:57;;;;;;;;;;;4.10;99.90;;;;;;8262814;28;19906;-76
2023/03/29 00:56:00;;;;;;;;;;;4.10;99.90;;;;;;8262600;28;20183;-76
2023/03/29 01:00:03;;;;;;;;;;;4.20;99.90;;;;;;8256333;28;20041;-77
2023/03/29 01:04:17;;;;;;;;;;;4.30;99.90;;;;;;8261815;28;20037;-78
2023/03/29 01:08:25;;;;;;;;;;;4.10;99.90;;;;;;8263559;28;19913;-76
2023/03/29 01:12:28;;;;;;;;;;;4.00;99.90;;;;;;8262597;28;20434;-76
2023/03/29 01:16:32;;;;;;;;;;;4.20;99.90;;;;;;8262002;28;20005;-76
2023/03/29 01:20:49;;;;;;;;;;;4.10;99.90;;;;;;8263981;28;19916;-76
2023/03/29 01:25:01;;;;;;;;;;;4.40;99.90;;;;;;8262005;28;20346;-76
2023/03/29 01:29:05;;;;;;;;;;;4.60;99.90;;;;;;8261796;28;20405;-77
2023/03/29 01:33:13;;;;;;;;;;;4.50;99.90;;;;;;8262022;28;20575;-76
2023/03/29 01:37:18;;;;;;;;;;;4.40;99.90;;;;;;8260726;28;19913;-76
2023/03/29 01:41:19;;;;;;;;;;;4.50;99.90;;;;;;8261469;28;19905;-76
2023/03/29 01:45:19;;;;;;;;;;;4.60;99.90;;;;;;8261476;28;19932;-75
2023/03/29 01:49:31;;;;;;;;;;;4.60;99.90;;;;;;8262381;28;19916;-76
2023/03/29 01:53:34;;;;;;;;;;;4.50;99.90;;;;;;8262012;28;19932;-77
2023/03/29 01:57:36;;;;;;;;;;;4.60;99.90;;;;;;8260877;28;19917;-76
2023/03/29 02:01:39;;;;;;;;;;;4.80;99.90;;;;;;8262145;28;19913;-76
2023/03/29 02:05:41;;;;;;;;;;;4.80;99.90;;;;;;8260581;28;19949;-76
2023/03/29 02:09:42;;;;;;;;;;;4.60;99.90;;;;;;8261072;28;20263;-76
2023/03/29 02:13:42;;;;;;;;;;;4.50;99.90;;;;;;8260534;28;19909;-76
2023/03/29 02:17:43;;;;;;;;;;;4.50;99.90;;;;;;8259649;28;19909;-76
2023/03/29 02:21:50;;;;;;;;;;;4.60;99.90;;;;;;8260991;28;19905;-78
2023/03/29 02:25:52;;;;;;;;;;;4.60;99.90;;;;;;8260094;28;19996;-76
2023/03/29 02:29:53;;;;;;;;;;;4.70;99.90;;;;;;8260215;28;19910;-76
2023/03/29 02:33:53;;;;;;;;;;;5.00;99.90;;;;;;8260570;28;20329;-76
2023/03/29 02:37:55;;;;;;;;;;;5.10;99.90;;;;;;8260035;28;20386;-75
2023/03/29 02:41:55;;;;;;;;;;;5.40;99.90;;;;;;8259935;28;19906;-76
2023/03/29 02:45:56;;;;;;;;;;;5.50;99.90;;;;;;8252966;28;19920;-76
2023/03/29 02:49:57;;;;;;;;;;;5.70;99.90;;;;;;8258806;28;20225;-76
2023/03/29 02:54:17;;;;;;;;;;;5.90;99.90;;;;;;8258587;28;19952;-77
2023/03/29 02:58:17;;;;;;;;;;;5.80;99.90;;;;;;8258172;28;19906;-78
2023/03/29 03:02:18;;;;;;;;;;;5.70;99.90;;;;;;8258521;28;20421;-76
2023/03/29 03:06:20;;;;;;;;;;;5.70;99.90;;;;;;8258086;28;20049;-76
2023/03/29 03:10:20;;;;;;;;;;;5.70;99.90;;;;;;8258599;28;19917;-76
2023/03/29 03:14:21;;;;;;;;;;;5.80;99.90;;;;;;8256451;28;19941;-76
2023/03/29 03:18:22;;;;;;;;;;;5.80;99.90;;;;;;8256383;28;19910;-76
2023/03/29 03:22:23;;;;;;;;;;;5.90;99.90;;;;;;8258731;28;19912;-76
2023/03/29 03:26:24;;;;;;;;;;;5.70;99.90;;;;;;8257939;28;19996;-77
2023/03/29 03:30:24;;;;;;;;;;;5.70;99.90;;;;;;8259289;28;19918;-76
2023/03/29 03:34:25;;;;;;;;;;;5.80;99.90;;;;;;8255816;28;20381;-77
2023/03/29 03:38:25;;;;;;;;;;;5.70;99.90;;;;;;8258038;28;20385;-77
2023/03/29 03:42:27;;;;;;;;;;;5.70;99.90;;;;;;8256583;28;20398;-78
2023/03/29 03:46:27;;;;;;;;;;;5.70;99.90;;;;;;8252907;28;20249;-77
2023/03/29 03:50:27;;;;;;;;;;;5.70;99.90;;;;;;8253305;28;19914;-77
2023/03/29 03:54:28;;;;;;;;;;;5.70;99.90;;;;;;8252911;28;19914;-77
2023/03/29 03:58:28;;;;;;;;;;;5.50;99.90;;;;;;8250830;28;19914;-77
2023/03/29 04:02:29;;;;;;;;;;;5.40;99.90;;;;;;8257544;28;19917;-77
2023/03/29 04:06:30;;;;;;;;;;;5.50;99.90;;;;;;8256486;28;19955;-77
2023/03/29 04:10:30;;;;;;;;;;;5.70;99.90;;;;;;8260182;28;19925;-77
2023/03/29 04:14:31;;;;;;;;;;;6.00;99.90;;;;;;8267169;28;19910;-77
2023/03/29 04:18:31;;;;;;;;;;;6.00;99.90;;;;;;8262820;28;19917;-77
2023/03/29 04:22:32;;;;;;;;;;;5.90;99.90;;;;;;8264764;28;19916;-77
2023/03/29 04:26:32;;;;;;;;;;;5.90;99.90;;;;;;8261207;28;19919;-77
2023/03/29 04:30:32;;;;;;;;;;;5.90;99.90;;;;;;8264643;28;19929;-77
2023/03/29 04:34:33;;;;;;;;;;;6.00;99.90;;;;;;8262217;28;19921;-77
2023/03/29 04:38:36;;;;;;;;;;;5.70;99.90;;;;;;8263191;28;19961;-77
2023/03/29 04:42:37;;;;;;;;;;;5.60;99.90;;;;;;8262851;28;20015;-78
2023/03/29 04:46:39;;;;;;;;;;;5.60;99.90;;;;;;8260596;28;19932;-78
2023/03/29 04:50:39;;;;;;;;;;;5.60;99.90;;;;;;8260458;28;20369;-77
2023/03/29 04:54:39;;;;;;;;;;;5.70;99.90;;;;;;8260787;28;19916;-77
2023/03/29 04:58:41;;;;;;;;;;;5.70;99.90;;;;;;8259878;28;19909;-77
2023/03/29 05:02:42;;;;;;;;;;;5.90;99.90;;;;;;8259504;28;19910;-77
2023/03/29 05:06:43;;;;;;;;;;;6.20;99.90;;;;;;8261564;28;20033;-77
2023/03/29 05:10:43;;;;;;;;;;;6.40;99.90;;;;;;8262299;28;20046;-77
2023/03/29 05:14:44;;;;;;;;;;;6.60;99.90;;;;;;8253095;28;19910;-76
2023/03/29 05:18:44;;;;;;;;;;;6.80;99.90;;;;;;8261342;28;19910;-76
2023/03/29 05:22:45;;;;;;;;;;;6.90;99.90;;;;;;8260862;28;20375;-77
2023/03/29 05:26:52;;;;;;;;;;;7.10;99.90;;;;;;8261362;28;19914;-77
2023/03/29 05:31:00;;;;;;;;;;;7.10;99.90;;;;;;8260299;28;19953;-76
2023/03/29 05:35:00;;;;;;;;;;;7.10;99.90;;;;;;8261595;28;20385;-77
2023/03/29 05:39:01;;;;;;;;;;;7.10;99.90;;;;;;8267607;28;19920;-77
2023/03/29 05:43:01;;;;;;;;;;;7.10;99.90;;;;;;8260544;28;20194;-77
2023/03/29 05:47:02;;;;;;;;;;;7.20;99.90;;;;;;8260385;28;19906;-75
2023/03/29 05:51:03;;;;;;;;;;;7.00;99.90;;;;;;8260902;28;19957;-77
2023/03/29 05:55:04;;;;;;;;;;;7.00;99.90;;;;;;8260220;28;19905;-78
2023/03/29 05:59:04;;;;;;;;;;;6.90;99.90;;;;;;8260111;28;19918;-77
2023/03/29 06:03:06;;;;;;;;;;;7.10;99.90;;;;;;8261987;28;19910;-77
2023/03/29 06:07:09;;;;;;;;;;;7.00;99.90;;;;;;8260662;28;20370;-77
2023/03/29 06:11:10;;;;;;;;;;;7.10;99.90;;;;;;8260155;28;19906;-77
2023/03/29 06:15:11;;;;;;;;;;;7.10;99.90;;;;;;8259660;28;20783;-76
2023/03/29 06:19:11;;;;;;;;;;;7.10;99.90;;;;;;8260978;28;20282;-77
2023/03/29 06:23:12;;;;;;;;;;;7.20;99.90;;;;;;8260013;28;20000;-78
2023/03/29 06:27:13;;;;;;;;;;;7.30;99.90;;;;;;8260219;28;19921;-77
2023/03/29 06:31:13;;;;;;;;;;;7.20;99.90;;;;;;8258965;28;19906;-76
2023/03/29 06:35:14;;;;;;;;;;;7.20;99.90;;;;;;8261199;28;19907;-77
2023/03/29 06:39:14;;;;;;;;;;;7.00;99.90;;;;;;8258942;28;19918;-77
2023/03/29 06:43:15;;;;;;;;;;;7.20;99.90;;;;;;8258955;28;19909;-77
2023/03/29 06:47:16;;;;;;;;;;;7.50;99.90;;;;;;8258555;28;20397;-77
2023/03/29 06:51:16;;;;;;;;;;;7.90;99.90;;;;;;8260047;28;19906;-77
2023/03/29 06:55:17;;;;;;;;;;;7.90;99.90;;;;;;8258493;28;20334;-77
2023/03/29 06:59:18;;;;;;;;;;;7.90;99.90;;;;;;8259521;28;19906;-76
2023/03/29 07:03:22;;;;;;;;;;;8.40;99.90;;;;;;8258658;28;19906;-77
2023/03/29 07:07:26;;;;;;;;;;;8.80;99.90;;;;;;8259484;28;19909;-77
2023/03/29 07:11:27;;;;;;;;;;;9.00;99.90;;;;;;8258338;28;19928;-77
2023/03/29 07:15:28;;;;;;;;;;;9.00;99.90;;;;;;8257839;28;19912;-77
2023/03/29 07:19:29;;;;;;;;;;;9.10;99.90;;;;;;8257864;28;19905;-77
2023/03/29 07:23:29;;;;;;;;;;;9.10;99.90;;;;;;8258124;28;19957;-76
2023/03/29 07:27:31;;;;;;;;;;;9.40;99.90;;;;;;8259098;28;19928;-77
2023/03/29 07:31:34;;;;;;;;;;;9.60;99.90;;;;;;8257877;28;19906;-77
2023/03/29 07:35:35;;;;;;;;;;;9.60;99.90;;;;;;8257883;28;19952;-77
2023/03/29 07:39:36;;;;;;;;;;;9.80;99.90;;;;;;8258962;28;20338;-77
2023/03/29 07:43:36;;;;;;;;;;;9.90;99.90;;;;;;8256977;28;19912;-77
2023/03/29 07:47:37;;;;;;;;;;;10.10;99.90;;;;;;8252084;28;19909;-77
2023/03/29 07:51:37;;;;;;;;;;;10.30;99.90;;;;;;8257823;28;19906;-77
2023/03/29 07:55:45;;;;;;;;;;;10.50;99.90;;;;;;8256161;28;19931;-78
2023/03/29 07:59:45;;;;;;;;;;;10.80;99.90;;;;;;8256100;28;19958;-77
2023/03/29 08:03:46;;;;;;;;;;;10.90;99.90;;;;;;8257182;28;19917;-77
2023/03/29 08:07:48;;;;;;;;;;;11.00;99.90;;;;;;8257061;28;19910;-76
2023/03/29 08:11:48;;;;;;;;;;;10.70;99.90;;;;;;8256915;28;20276;-77
2023/03/29 08:15:49;;;;;;;;;;;10.30;99.90;;;;;;8258172;28;19960;-77
2023/03/29 08:19:50;;;;;;;;;;;10.10;99.90;;;;;;8256690;28;19952;-77
2023/03/29 08:23:50;;;;;;;;;;;10.30;99.90;;;;;;8256169;28;20166;-76
2023/03/29 08:27:51;;;;;;;;;;;10.50;99.90;;;;;;8256623;28;19917;-76
2023/03/29 08:31:53;;;;;;;;;;;10.50;99.90;;;;;;8256303;28;19916;-77
2023/03/29 08:35:53;;;;;;;;;;;10.70;99.90;;;;;;8256959;28;19906;-77
2023/03/29 08:39:54;;;;;;;;;;;10.90;99.90;;;;;;8256649;28;19913;-77
2023/03/29 08:43:58;;;;;;;;;;;11.10;99.90;;;;;;8257521;28;19959;-77
2023/03/29 08:48:02;;;;;;;;;;;11.10;99.90;;;;;;8250951;28;19910;-77
2023/03/29 08:52:04;;;;;;;;;;;11.00;99.90;;;;;;8256441;28;19916;-78
2023/03/29 08:56:07;;;;;;;;;;;11.50;99.90;;;;;;8259279;28;19909;-77
2023/03/29 09:00:16;;;;;;;;;;;11.60;99.90;;;;;;8262526;28;19905;-76
2023/03/29 09:04:21;;;;;;;;;;;11.80;99.90;;;;;;8262497;28;19905;-77
2023/03/29 09:08:22;;;;;;;;;;;12.00;99.90;;;;;;8262200;28;19945;-77
2023/03/29 09:12:28;;;;;;;;;;;11.80;99.90;;;;;;8262794;28;20275;-77
2023/03/29 09:16:29;;;;;;;;;;;11.80;99.90;;;;;;8263286;28;20362;-77
2023/03/29 09:20:36;;;;;;;;;;;12.00;99.90;;;;;;8262468;28;19906;-77
2023/03/29 09:24:55;;;;;;;;;;;12.20;99.90;;;;;;8261760;28;19905;-77
2023/03/29 09:29:04;;;;;;;;;;;12.10;99.90;;;;;;8260355;28;19917;-77
2023/03/29 09:33:15;;;;;;;;;;;12.00;99.90;;;;;;8255470;28;20129;-77
2023/03/29 09:37:28;;;;;;;;;;;12.10;99.90;;;;;;8261428;28;20191;-77
2023/03/29 09:41:29;;;;;;;;;;;12.40;99.90;;;;;;8261238;28;19945;-77
2023/03/29 09:45:30;;;;;;;;;;;12.80;99.90;;;;;;8261967;28;19916;-77
2023/03/29 09:49:31;;;;;;;;;;;12.90;99.90;;;;;;8260273;28;19916;-77
2023/03/29 09:53:32;;;;;;;;;;;13.10;99.90;;;;;;8262008;28;20477;-77
2023/03/29 09:57:32;;;;;;;;;;;13.10;99.90;;;;;;8261558;28;19905;-78
2023/03/29 10:01:38;;;;;;;;;;;13.20;99.90;;;;;;8260585;28;19909;-77
2023/03/29 10:05:39;;;;;;;;;;;13.40;99.90;;;;;;8260071;28;19935;-77
2023/03/29 10:09:41;;;;;;;;;;;13.70;99.90;;;;;;8259649;28;20363;-77
2023/03/29 10:13:46;;;;;;;;;;;13.90;99.90;;;;;;8261294;28;19948;-77
2023/03/29 10:17:46;;;;;;;;;;;14.00;99.90;;;;;;8259858;28;19905;-77
2023/03/29 10:21:48;;;;;;;;;;;13.70;99.90;;;;;;8261938;28;19929;-77
2023/03/29 10:25:49;;;;;;;;;;;13.80;99.90;;;;;;8259948;28;20384;-77
2023/03/29 10:29:49;;;;;;;;;;;13.50;99.90;;;;;;8259792;28;19964;-77
2023/03/29 10:33:51;;;;;;;;;;;13.30;99.90;;;;;;8259479;28;19909;-77
2023/03/29 10:37:54;;;;;;;;;;;13.60;99.90;;;;;;8274652;28;19917;-78
2023/03/29 10:41:54;;;;;;;;;;;13.70;99.90;;;;;;8259988;28;19906;-77
2023/03/29 10:45:56;;;;;;;;;;;13.90;99.90;;;;;;8252675;28;19921;-76
2023/03/29 10:50:00;;;;;;;;;;;13.80;99.90;;;;;;8258622;28;19909;-76
2023/03/29 10:54:01;;;;;;;;;;;13.90;99.90;;;;;;8259803;28;19912;-77
2023/03/29 10:58:08;;;;;;;;;;;14.40;99.90;;;;;;8258630;28;19906;-77
2023/03/29 11:02:11;;;;;;;;;;;14.70;99.90;;;;;;8258405;28;20366;-78
2023/03/29 11:06:21;;;;;;;;;;;14.90;99.90;;;;;;8258063;28;19910;-77
2023/03/29 11:10:29;;;;;;;;;;;15.10;99.90;;;;;;8259446;28;19922;-77
2023/03/29 11:14:40;;;;;;;;;;;15.00;99.90;;;;;;8259915;28;19960;-77
2023/03/29 11:18:58;;;;;;;;;;;15.00;99.90;;;;;;8259193;28;19960;-77
2023/03/29 11:23:13;;;;;;;;;;;15.40;99.90;;;;;;8258545;28;19906;-77
2023/03/29 11:27:40;;;;;;;;;;;15.70;99.90;;;;;;8258447;28;19917;-77
2023/03/29 11:31:54;;;;;;;;;;;15.80;99.90;;;;;;8257221;28;19912;-77
2023/03/29 11:36:00;;;;;;;;;;;15.90;99.90;;;;;;8258682;28;19942;-77
2023/03/29 11:40:21;;;;;;;;;;;16.10;99.90;;;;;;8259170;28;19917;-77
2023/03/29 11:44:31;;;;;;;;;;;16.30;99.90;;;;;;8251112;28;19914;-77
2023/03/29 11:48:37;;;;;;;;;;;16.00;99.90;;;;;;8255442;28;20009;-77
2023/03/29 11:52:58;;;;;;;;;;;15.90;99.90;;;;;;8257542;28;19921;-77
2023/03/29 11:57:01;;;;;;;;;;;16.30;99.90;;;;;;8256487;28;19905;-77
2023/03/29 12:01:21;;;;;;;;;;;16.00;99.90;;;;;;8257856;28;19996;-77
2023/03/29 12:05:31;;;;;;;;;;;16.00;99.90;;;;;;8256757;28;19949;-77
2023/03/29 12:09:35;;;;;;;;;;;16.20;99.90;;;;;;8257924;28;19968;-77
2023/03/29 12:13:42;;;;;;;;;;;16.00;99.90;;;;;;8256871;28;19909;-77
2023/03/29 12:18:03;;;;;;;;;;;15.50;99.90;;;;;;8258186;28;19997;-77
2023/03/29 12:22:06;;;;;;;;;;;15.30;99.90;;;;;;8235543;28;19936;-77
2023/03/29 12:26:28;;;;;;;;;;;15.20;99.90;;;;;;8256971;28;20330;-77
2023/03/29 12:30:28;;;;;;;;;;;14.90;99.90;;;;;;8259148;28;20409;-77
2023/03/29 12:34:47;;;;;;;;;;;14.50;99.90;;;;;;8264802;28;19909;-77
2023/03/29 12:38:50;;;;;;;;;;;14.90;99.90;;;;;;8263118;28;19953;-77
2023/03/29 12:42:52;;;;;;;;;;;15.00;99.90;;;;;;8264369;28;19905;-77
2023/03/29 12:46:53;;;;;;;;;;;14.90;99.90;;;;;;8256265;28;19960;-77
2023/03/29 12:50:59;;;;;;;;;;;15.10;99.90;;;;;;8263109;28;19916;-77
2023/03/29 12:55:01;;;;;;;;;;;15.20;99.90;;;;;;8262838;28;19933;-78
2023/03/29 12:59:16;;;;;;;;;;;15.50;99.90;;;;;;8262530;28;19913;-77
2023/03/29 13:03:26;;;;;;;;;;;15.70;99.90;;;;;;8261735;28;19905;-78
2023/03/29 13:07:28;;;;;;;;;;;16.50;99.90;;;;;;8261821;28;19984;-77
2023/03/29 13:11:33;;;;;;;;;;;16.30;99.90;;;;;;8263698;28;20366;-77
2023/03/29 13:15:34;;;;;;;;;;;15.80;99.90;;;;;;8261671;28;19936;-78
2023/03/29 13:19:40;;;;;;;;;;;15.10;99.90;;;;;;8262826;28;19937;-77
2023/03/29 13:23:53;;;;;;;;;;;15.00;99.90;;;;;;8262923;28;19906;-78
2023/03/29 13:27:56;;;;;;;;;;;15.00;99.90;;;;;;8260298;28;19949;-76
2023/03/29 13:32:05;;;;;;;;;;;15.30;99.90;;;;;;8261604;28;19945;-78
2023/03/29 13:36:08;;;;;;;;;;;16.40;99.90;;;;;;8256759;28;20382;-77
2023/03/29 13:40:28;;;;;;;;;;;19.40;97.90;;;;;;8261121;28;19913;-77
2023/03/29 13:44:37;;;;;;;;;;;20.30;95.80;;;;;;8258417;28;19913;-77
2023/03/29 13:48:37;;;;;;;;;;;20.60;94.80;;;;;;8259784;28;19914;-77
2023/03/29 13:52:56;;;;;;;;;;;19.90;94.30;;;;;;8262262;28;20245;-77
2023/03/29 13:57:00;;;;;;;;;;;20.10;92.40;;;;;;8261130;28;19906;-77
2023/03/29 14:01:19;;;;;;;;;;;20.70;94.60;;;;;;8260493;28;19916;-77
2023/03/29 14:05:22;;;;;;;;;;;22.50;90.60;;;;;;8256188;28;19913;-78
2023/03/29 14:09:26;;;;;;;;;;;23.50;83.20;;;;;;8260473;28;20434;-77
2023/03/29 14:13:27;;;;;;;;;;;22.30;82.40;;;;;;8260008;28;19929;-77
2023/03/29 14:17:28;;;;;;;;;;;20.60;87.80;;;;;;8259541;28;19906;-78
2023/03/29 14:21:29;;;;;;;;;;;19.10;91.40;;;;;;8260117;28;20000;-77
2023/03/29 14:25:29;;;;;;;;;;;18.40;94.80;;;;;;8259762;28;19913;-78
2023/03/29 14:29:30;;;;;;;;;;;17.70;96.00;;;;;;8259589;28;19948;-77
2023/03/29 14:33:33;;;;;;;;;;;17.10;97.40;;;;;;8259226;28;19913;-78
2023/03/29 14:37:33;;;;;;;;;;;17.00;99.00;;;;;;8259424;28;20451;-77
2023/03/29 14:41:35;;;;;;;;;;;17.40;99.40;;;;;;8260620;28;19917;-77
2023/03/29 14:45:36;;;;;;;;;;;18.40;95.70;;;;;;8252422;28;19910;-78
2023/03/29 14:49:37;;;;;;;;;;;17.90;96.40;;;;;;8259765;28;19913;-77
2023/03/29 14:53:38;;;;;;;;;;;17.60;97.40;;;;;;8258090;28;19996;-78
2023/03/29 14:57:38;;;;;;;;;;;17.50;96.90;;;;;;8258032;28;20370;-77
2023/03/29 15:01:42;;;;;;;;;;;18.20;98.80;;;;;;8260170;28;19976;-78
2023/03/29 15:05:47;;;;;;;;;;;18.40;96.70;;;;;;8258281;28;19906;-77
2023/03/29 15:09:47;;;;;;;;;;;18.00;98.00;;;;;;8257120;28;20049;-77
2023/03/29 15:13:50;;;;;;;;;;;17.40;99.10;;;;;;8258274;28;19909;-78
2023/03/29 15:17:51;;;;;;;;;;;17.50;99.70;;;;;;8256017;28;20301;-77
2023/03/29 15:21:52;;;;;;;;;;;17.80;99.00;;;;;;8257632;28;20086;-77
2023/03/29 15:25:54;;;;;;;;;;;18.10;98.40;;;;;;8257569;28;20343;-77
2023/03/29 15:30:00;;;;;;;;;;;18.20;98.90;;;;;;8257673;28;19910;-78
2023/03/29 15:34:02;;;;;;;;;;;18.40;96.50;;;;;;8257728;28;20370;-78
2023/03/29 15:38:05;;;;;;;;;;;18.50;98.00;;;;;;8259162;28;19914;-78
2023/03/29 15:42:05;;;;;;;;;;;18.50;97.40;;;;;;8254133;28;19909;-77
2023/03/29 15:46:06;;;;;;;;;;;19.30;94.70;;;;;;8249629;28;20008;-78
2023/03/29 15:50:07;;;;;;;;;;;20.50;94.20;;;;;;8254851;28;20390;-78
2023/03/29 15:54:08;;;;;;;;;;;23.00;91.00;;;;;;8281326;23;19953;-84
2023/03/29 15:58:11;;;;;;;;;;;23.40;88.10;;;;;;8243304;28;19913;-84
2023/03/29 16:02:16;;;;;;;;;;;23.40;81.80;;;;;;8242228;28;19913;-83
2023/03/29 16:06:16;;;;;;;;;;;22.00;81.50;;;;;;8261601;28;19906;-84
2023/03/29 16:10:17;;;;;;;;;;;19.50;90.60;;;;;;8259077;28;19912;-83
2023/03/29 16:14:19;;;;;;;;;;;17.80;93.20;;;;;;8263248;28;19961;-83
2023/03/29 16:18:21;;;;;;;;;;;17.40;94.00;;;;;;8254068;28;20474;-80
2023/03/29 16:22:22;;;;;;;;;;;16.90;95.40;;;;;;8255684;28;19914;-80
2023/03/29 16:26:24;;;;;;;;;;;16.50;96.30;;;;;;8261604;28;20597;-79
2023/03/29 16:30:25;;;;;;;;;;;16.00;97.70;;;;;;8244029;28;19996;-80
2023/03/29 16:34:25;;;;;;;;;;;15.90;98.10;;;;;;8245425;28;21177;-80
2023/03/29 16:38:28;;;;;;;;;;;16.00;98.50;;;;;;8243718;28;19981;-79
2023/03/29 16:42:28;;;;;;;;;;;15.70;99.00;;;;;;8242543;28;19905;-80
2023/03/29 16:46:29;;;;;;;;;;;15.40;99.60;;;;;;8257110;28;19910;-79
2023/03/29 16:50:29;;;;;;;;;;;15.10;99.90;;;;;;8242692;28;19912;-80
2023/03/29 16:54:31;;;;;;;;;;;15.10;99.90;;;;;;8241389;28;19914;-80
2023/03/29 16:58:31;;;;;;;;;;;15.00;99.90;;;;;;8240588;28;19949;-81
2023/03/29 17:02:32;;;;;;;;;;;15.00;99.90;;;;;;8242878;28;20094;-80
2023/03/29 17:06:32;;;;;;;;;;;14.70;99.90;;;;;;8242296;28;19909;-80
2023/03/29 17:10:33;;;;;;;;;;;14.60;99.90;;;;;;8244613;28;20004;-80
2023/03/29 17:14:33;;;;;;;;;;;14.60;99.90;;;;;;8242809;28;20004;-80
2023/03/29 17:18:34;;;;;;;;;;;14.60;99.90;;;;;;8240952;28;19913;-80
2023/03/29 17:22:34;;;;;;;;;;;14.40;99.90;;;;;;8248595;28;19910;-79
2023/03/29 17:26:36;;;;;;;;;;;14.30;99.90;;;;;;8257803;28;19918;-82
2023/03/29 17:30:37;;;;;;;;;;;14.20;99.90;;;;;;8233707;28;19917;-80
2023/03/29 17:34:38;;;;;;;;;;;14.00;99.90;;;;;;8234587;28;20362;-80
2023/03/29 17:38:38;;;;;;;;;;;13.90;99.90;;;;;;8248121;28;19977;-81
2023/03/29 17:42:42;;;;;;;;;;;13.90;99.90;;;;;;8248690;28;19910;-80
2023/03/29 17:46:43;;;;;;;;;;;13.50;99.90;;;;;;8252747;28;19918;-80
2023/03/29 17:50:43;;;;;;;;;;;13.60;99.90;;;;;;8253078;28;20008;-80
2023/03/29 17:54:44;;;;;;;;;;;13.70;99.90;;;;;;8252547;28;19914;-79
2023/03/29 17:58:45;;;;;;;;;;;13.70;99.90;;;;;;8235985;28;19956;-79
2023/03/29 18:02:45;;;;;;;;;;;13.70;99.90;;;;;;8246574;28;19980;-80
2023/03/29 18:06:47;;;;;;;;;;;13.70;99.90;;;;;;8245705;28;19970;-78
2023/03/29 18:10:48;;;;;;;;;;;13.60;99.90;;;;;;8252781;28;19910;-80
2023/03/29 18:14:48;;;;;;;;;;;13.50;99.90;;;;;;8237702;28;20326;-80
2023/03/29 18:18:49;;;;;;;;;;;13.60;99.90;;;;;;8256585;28;19929;-80
2023/03/29 18:22:49;;;;;;;;;;;13.70;99.90;;;;;;8248542;28;20000;-80
2023/03/29 18:26:50;;;;;;;;;;;13.70;99.90;;;;;;8245230;28;19964;-79
2023/03/29 18:30:51;;;;;;;;;;;13.60;99.90;;;;;;8259412;28;19910;-79
2023/03/29 18:34:51;;;;;;;;;;;13.70;99.90;;;;;;8242382;28;19910;-79
2023/03/29 18:39:04;;;;;;;;;;;13.80;99.90;;;;;;8247319;28;19921;-80
2023/03/29 18:43:04;;;;;;;;;;;13.80;99.90;;;;;;8240863;28;19921;-79
2023/03/29 18:47:06;;;;;;;;;;;13.70;99.90;;;;;;8238089;28;19921;-80
2023/03/29 18:51:10;;;;;;;;;;;13.60;99.90;;;;;;8246894;28;19996;-79
2023/03/29 18:55:10;;;;;;;;;;;13.60;99.90;;;;;;8236500;28;19914;-78
2023/03/29 18:59:11;;;;;;;;;;;13.60;99.90;;;;;;8229595;28;19910;-79
2023/03/29 19:03:11;;;;;;;;;;;13.70;99.90;;;;;;8241920;28;19910;-79
2023/03/29 19:07:12;;;;;;;;;;;13.60;99.90;;;;;;8242509;28;19968;-79
2023/03/29 19:11:13;;;;;;;;;;;13.40;99.90;;;;;;8242684;28;20011;-80
2023/03/29 19:15:14;;;;;;;;;;;13.20;99.90;;;;;;8237823;28;19924;-80
2023/03/29 19:19:14;;;;;;;;;;;13.30;99.90;;;;;;8233490;28;19914;-79
2023/03/29 19:23:15;;;;;;;;;;;13.10;99.90;;;;;;8240443;28;19995;-80
2023/03/29 19:27:16;;;;;;;;;;;12.80;99.90;;;;;;8233679;28;19910;-80
2023/03/29 19:31:16;;;;;;;;;;;12.70;99.90;;;;;;8237525;28;20401;-78
2023/03/29 19:35:17;;;;;;;;;;;12.50;99.90;;;;;;8243982;28;19944;-80
2023/03/29 19:39:17;;;;;;;;;;;12.20;99.90;;;;;;8233167;28;19910;-80
2023/03/29 19:43:19;;;;;;;;;;;12.20;99.90;;;;;;8243686;28;19909;-79
2023/03/29 19:47:19;;;;;;;;;;;11.80;99.90;;;;;;8240666;28;19909;-80
2023/03/29 19:51:21;;;;;;;;;;;11.70;99.90;;;;;;8234176;28;19910;-79
2023/03/29 19:55:22;;;;;;;;;;;11.50;99.90;;;;;;8232346;28;19967;-80
2023/03/29 19:59:23;;;;;;;;;;;11.40;99.90;;;;;;8228661;28;19921;-81
2023/03/29 20:03:27;;;;;;;;;;;11.50;99.90;;;;;;8234773;28;20411;-79
2023/03/29 20:07:27;;;;;;;;;;;11.60;99.90;;;;;;8232165;28;20363;-79
2023/03/29 20:11:27;;;;;;;;;;;11.80;99.90;;;;;;8224248;28;19953;-79
2023/03/29 20:15:28;;;;;;;;;;;12.10;99.90;;;;;;8236659;28;19909;-78
2023/03/29 20:19:28;;;;;;;;;;;12.30;99.90;;;;;;8239779;28;20028;-79
2023/03/29 20:23:30;;;;;;;;;;;12.50;99.90;;;;;;8249301;28;19937;-79
2023/03/29 20:27:30;;;;;;;;;;;12.70;99.90;;;;;;8239271;28;19957;-79
2023/03/29 20:31:31;;;;;;;;;;;12.90;99.90;;;;;;8256472;28;20001;-78
2023/03/29 20:35:31;;;;;;;;;;;12.90;99.90;;;;;;8246607;28;19956;-79
2023/03/29 20:39:32;;;;;;;;;;;13.00;99.90;;;;;;8248391;28;19953;-81
2023/03/29 20:43:36;;;;;;;;;;;13.20;99.90;;;;;;8261576;28;19920;-79
2023/03/29 20:47:41;;;;;;;;;;;13.30;99.90;;;;;;8249930;28;20552;-79
2023/03/29 20:51:42;;;;;;;;;;;13.50;99.90;;;;;;8248330;28;19910;-80
2023/03/29 20:55:42;;;;;;;;;;;13.40;99.90;;;;;;8260508;28;19913;-80
2023/03/29 20:59:43;;;;;;;;;;;13.40;99.90;;;;;;8252837;28;20086;-78
2023/03/29 21:03:44;;;;;;;;;;;13.50;99.90;;;;;;8242711;28;19913;-78
2023/03/29 21:07:46;;;;;;;;;;;13.60;99.90;;;;;;8235388;28;19929;-79
2023/03/29 21:11:47;;;;;;;;;;;13.60;99.90;;;;;;8258966;28;19906;-78
2023/03/29 21:15:48;;;;;;;;;;;13.50;99.90;;;;;;8243156;28;19912;-78
2023/03/29 21:19:48;;;;;;;;;;;13.60;99.90;;;;;;8267911;28;19921;-78
2023/03/29 21:23:49;;;;;;;;;;;13.50;99.90;;;;;;8250346;28;19906;-78
2023/03/29 21:27:50;;;;;;;;;;;13.50;99.90;;;;;;8267995;28;19957;-78
2023/03/29 21:31:50;;;;;;;;;;;13.40;99.90;;;;;;8267634;28;19913;-78
2023/03/29 21:35:50;;;;;;;;;;;13.40;99.90;;;;;;8267170;28;19906;-78
2023/03/29 21:39:51;;;;;;;;;;;13.20;99.90;;;;;;8266900;28;19914;-78
2023/03/29 21:43:51;;;;;;;;;;;13.10;99.90;;;;;;8249086;28;19909;-77
2023/03/29 21:47:52;;;;;;;;;;;13.00;99.90;;;;;;8251071;28;19952;-78
2023/03/29 21:51:52;;;;;;;;;;;12.80;99.90;;;;;;8266628;28;19909;-78
2023/03/29 21:55:53;;;;;;;;;;;12.80;99.90;;;;;;8297228;23;19922;-77
2023/03/29 21:59:53;;;;;;;;;;;12.70;99.90;;;;;;8244309;28;19956;-77
2023/03/29 22:03:54;;;;;;;;;;;12.60;99.90;;;;;;8243556;28;20386;-77
2023/03/29 22:07:57;;;;;;;;;;;12.60;99.90;;;;;;8261582;28;19949;-77
2023/03/29 22:12:00;;;;;;;;;;;12.60;99.90;;;;;;8264703;28;19985;-77
2023/03/29 22:16:02;;;;;;;;;;;12.60;99.90;;;;;;8261930;28;19906;-76
2023/03/29 22:20:10;;;;;;;;;;;12.70;99.90;;;;;;8245494;28;19914;-77
2023/03/29 22:24:10;;;;;;;;;;;12.70;99.90;;;;;;8241292;28;19921;-77
2023/03/29 22:28:12;;;;;;;;;;;12.70;99.90;;;;;;8246689;28;19949;-77
2023/03/29 22:32:13;;;;;;;;;;;12.60;99.90;;;;;;8245450;28;20151;-77
2023/03/29 22:36:21;;;;;;;;;;;12.60;99.90;;;;;;8257559;28;19913;-77
2023/03/29 22:40:21;;;;;;;;;;;12.60;99.90;;;;;;8261093;28;19918;-77
2023/03/29 22:44:22;;;;;;;;;;;12.70;99.90;;;;;;8249685;28;19945;-77
2023/03/29 22:48:22;;;;;;;;;;;12.70;99.90;;;;;;8236442;28;19917;-77
2023/03/29 22:52:23;;;;;;;;;;;12.80;99.90;;;;;;8251227;28;19913;-77
2023/03/29 22:56:23;;;;;;;;;;;12.80;99.90;;;;;;8259936;28;19921;-76
2023/03/29 23:00:24;;;;;;;;;;;12.70;99.90;;;;;;8247529;28;19914;-77
2023/03/29 23:04:24;;;;;;;;;;;12.70;99.90;;;;;;8252609;28;19996;-77
2023/03/29 23:08:25;;;;;;;;;;;12.70;99.90;;;;;;8256428;28;19917;-78
2023/03/29 23:12:25;;;;;;;;;;;12.70;99.90;;;;;;8248038;28;19960;-77
2023/03/29 23:16:26;;;;;;;;;;;12.70;99.90;;;;;;8250453;28;19921;-76
2023/03/29 23:20:28;;;;;;;;;;;12.80;99.90;;;;;;8260480;28;19913;-77
2023/03/29 23:24:29;;;;;;;;;;;12.80;99.90;;;;;;8249190;28;20394;-76
2023/03/29 23:28:30;;;;;;;;;;;12.70;99.90;;;;;;8255564;28;19909;-77
2023/03/29 23:32:31;;;;;;;;;;;12.60;99.90;;;;;;8258645;28;19910;-76
2023/03/29 23:36:31;;;;;;;;;;;12.80;99.90;;;;;;8258333;28;20043;-77
2023/03/29 23:40:32;;;;;;;;;;;12.80;99.90;;;;;;8259335;28;19953;-76